sensor_id;sensor_type;location;lat;lon;timestamp;P1;durP1;ratioP1;P2;durP2;ratioP2
25479;SDS011;13393;49.378;8.686;2023-05-10T00:01:48;1.55;;;1.00;;
25479;SDS011;13393;49.378;8.686;2023-05-10T00:04:14;2.58;;;1.00;;
25479;SDS011;13393;49.378;8.686;2023-05-10T00:06:41;1.58;;;1.00;;
25479;SDS011;13393;49.378;8.686;2023-05-10T00:09:07;0.98;;;0.93;;
25479;SDS011;13393;49.378;8.686;2023-05-10T00:11:34;1.02;;;0.93;;
25479;SDS011;13393;49.378;8.686;2023-05-10T00:14:01;1.65;;;1.00;;
25479;SDS011;13393;49.378;8.686;2023-05-10T00:16:28;3.55;;;1.17;;
25479;SDS011;13393;49.378;8.686;2023-05-10T00:18:54;3.17;;;0.90;;
25479;SDS011;13393;49.378;8.686;2023-05-10T00:21:20;4.93;;;0.80;;
25479;SDS011;13393;49.378;8.686;2023-05-10T00:23:47;1.27;;;0.65;;
25479;SDS011;13393;49.378;8.686;2023-05-10T00:26:13;1.60;;;0.90;;
25479;SDS011;13393;49.378;8.686;2023-05-10T00:28:39;1.23;;;0.80;;
25479;SDS011;13393;49.378;8.686;2023-05-10T00:31:07;1.27;;;0.90;;
25479;SDS011;13393;49.378;8.686;2023-05-10T00:33:33;0.85;;;0.85;;
25479;SDS011;13393;49.378;8.686;2023-05-10T00:36:00;2.38;;;0.90;;
25479;SDS011;13393;49.378;8.686;2023-05-10T00:38:26;1.67;;;0.70;;
25479;SDS011;13393;49.378;8.686;2023-05-10T00:40:52;1.13;;;1.00;;
25479;SDS011;13393;49.378;8.686;2023-05-10T00:43:19;2.80;;;0.93;;
25479;SDS011;13393;49.378;8.686;2023-05-10T00:45:45;0.88;;;0.70;;
25479;SDS011;13393;49.378;8.686;2023-05-10T00:48:13;2.15;;;0.70;;
25479;SDS011;13393;49.378;8.686;2023-05-10T00:50:39;4.10;;;0.80;;
25479;SDS011;13393;49.378;8.686;2023-05-10T00:53:06;0.70;;;0.68;;
25479;SDS011;13393;49.378;8.686;2023-05-10T00:55:33;1.05;;;0.90;;
25479;SDS011;13393;49.378;8.686;2023-05-10T00:57:59;2.70;;;0.80;;
25479;SDS011;13393;49.378;8.686;2023-05-10T01:00:26;0.80;;;0.80;;
25479;SDS011;13393;49.378;8.686;2023-05-10T01:02:53;1.60;;;0.73;;
25479;SDS011;13393;49.378;8.686;2023-05-10T01:05:21;2.03;;;0.55;;
25479;SDS011;13393;49.378;8.686;2023-05-10T01:07:47;3.95;;;0.80;;
25479;SDS011;13393;49.378;8.686;2023-05-10T01:10:14;2.63;;;0.63;;
25479;SDS011;13393;49.378;8.686;2023-05-10T01:12:40;1.02;;;0.80;;
25479;SDS011;13393;49.378;8.686;2023-05-10T01:15:08;0.80;;;0.60;;
25479;SDS011;13393;49.378;8.686;2023-05-10T01:17:36;1.13;;;0.75;;
25479;SDS011;13393;49.378;8.686;2023-05-10T01:20:04;0.60;;;0.60;;
25479;SDS011;13393;49.378;8.686;2023-05-10T01:22:42;3.40;;;0.82;;
25479;SDS011;13393;49.378;8.686;2023-05-10T01:25:23;1.73;;;0.82;;
25479;SDS011;13393;49.378;8.686;2023-05-10T01:27:59;1.83;;;0.65;;
25479;SDS011;13393;49.378;8.686;2023-05-10T01:30:42;1.48;;;0.80;;
25479;SDS011;13393;49.378;8.686;2023-05-10T01:33:13;2.20;;;1.10;;
25479;SDS011;13393;49.378;8.686;2023-05-10T01:35:43;1.10;;;0.95;;
25479;SDS011;13393;49.378;8.686;2023-05-10T01:38:14;1.10;;;1.10;;
25479;SDS011;13393;49.378;8.686;2023-05-10T01:40:46;2.10;;;1.30;;
25479;SDS011;13393;49.378;8.686;2023-05-10T01:43:15;1.35;;;1.23;;
25479;SDS011;13393;49.378;8.686;2023-05-10T01:45:45;2.58;;;1.60;;
25479;SDS011;13393;49.378;8.686;2023-05-10T01:48:14;1.63;;;1.52;;
25479;SDS011;13393;49.378;8.686;2023-05-10T01:50:42;1.40;;;1.30;;
25479;SDS011;13393;49.378;8.686;2023-05-10T01:53:09;1.83;;;1.73;;
25479;SDS011;13393;49.378;8.686;2023-05-10T01:55:39;1.92;;;1.30;;
25479;SDS011;13393;49.378;8.686;2023-05-10T01:58:08;1.60;;;1.50;;
25479;SDS011;13393;49.378;8.686;2023-05-10T02:00:35;1.65;;;1.40;;
25479;SDS011;13393;49.378;8.686;2023-05-10T02:03:04;1.90;;;1.13;;
25479;SDS011;13393;49.378;8.686;2023-05-10T02:05:32;2.08;;;1.50;;
25479;SDS011;13393;49.378;8.686;2023-05-10T02:08:00;1.50;;;1.00;;
25479;SDS011;13393;49.378;8.686;2023-05-10T02:10:27;2.25;;;1.27;;
25479;SDS011;13393;49.378;8.686;2023-05-10T02:12:54;1.27;;;0.95;;
25479;SDS011;13393;49.378;8.686;2023-05-10T02:15:22;3.70;;;1.30;;
25479;SDS011;13393;49.378;8.686;2023-05-10T02:17:49;1.25;;;1.00;;
25479;SDS011;13393;49.378;8.686;2023-05-10T02:20:16;3.33;;;1.30;;
25479;SDS011;13393;49.378;8.686;2023-05-10T02:22:44;3.03;;;1.33;;
25479;SDS011;13393;49.378;8.686;2023-05-10T02:25:10;1.33;;;1.20;;
25479;SDS011;13393;49.378;8.686;2023-05-10T02:27:39;1.70;;;1.10;;
25479;SDS011;13393;49.378;8.686;2023-05-10T02:30:07;1.45;;;1.27;;
25479;SDS011;13393;49.378;8.686;2023-05-10T02:32:34;1.75;;;1.35;;
25479;SDS011;13393;49.378;8.686;2023-05-10T02:35:01;3.15;;;1.92;;
25479;SDS011;13393;49.378;8.686;2023-05-10T02:37:29;4.25;;;1.35;;
25479;SDS011;13393;49.378;8.686;2023-05-10T02:39:57;3.30;;;1.42;;
25479;SDS011;13393;49.378;8.686;2023-05-10T02:42:25;2.70;;;1.30;;
25479;SDS011;13393;49.378;8.686;2023-05-10T02:44:52;1.73;;;1.33;;
25479;SDS011;13393;49.378;8.686;2023-05-10T02:47:19;4.55;;;1.20;;
25479;SDS011;13393;49.378;8.686;2023-05-10T02:49:46;5.05;;;1.67;;
25479;SDS011;13393;49.378;8.686;2023-05-10T02:52:13;3.53;;;2.60;;
25479;SDS011;13393;49.378;8.686;2023-05-10T02:54:45;1.00;;;1.00;;
25479;SDS011;13393;49.378;8.686;2023-05-10T02:57:14;3.05;;;1.10;;
25479;SDS011;13393;49.378;8.686;2023-05-10T02:59:43;2.92;;;1.48;;
25479;SDS011;13393;49.378;8.686;2023-05-10T03:02:10;3.83;;;1.20;;
25479;SDS011;13393;49.378;8.686;2023-05-10T03:04:36;3.25;;;1.40;;
25479;SDS011;13393;49.378;8.686;2023-05-10T03:07:02;3.33;;;1.10;;
25479;SDS011;13393;49.378;8.686;2023-05-10T03:09:29;1.40;;;1.30;;
25479;SDS011;13393;49.378;8.686;2023-05-10T03:11:56;2.10;;;1.33;;
25479;SDS011;13393;49.378;8.686;2023-05-10T03:14:32;3.70;;;1.75;;
25479;SDS011;13393;49.378;8.686;2023-05-10T03:17:04;5.50;;;1.83;;
25479;SDS011;13393;49.378;8.686;2023-05-10T03:19:35;1.40;;;1.33;;
25479;SDS011;13393;49.378;8.686;2023-05-10T03:22:04;1.50;;;1.40;;
25479;SDS011;13393;49.378;8.686;2023-05-10T03:24:34;2.40;;;1.73;;
25479;SDS011;13393;49.378;8.686;2023-05-10T03:27:01;1.52;;;1.42;;
25479;SDS011;13393;49.378;8.686;2023-05-10T03:29:31;3.00;;;1.73;;
25479;SDS011;13393;49.378;8.686;2023-05-10T03:31:57;2.75;;;1.85;;
25479;SDS011;13393;49.378;8.686;2023-05-10T03:34:24;2.28;;;1.70;;
25479;SDS011;13393;49.378;8.686;2023-05-10T03:36:51;1.58;;;1.48;;
25479;SDS011;13393;49.378;8.686;2023-05-10T03:39:17;2.08;;;1.88;;
25479;SDS011;13393;49.378;8.686;2023-05-10T03:41:44;3.38;;;1.92;;
25479;SDS011;13393;49.378;8.686;2023-05-10T03:44:10;2.78;;;1.60;;
25479;SDS011;13393;49.378;8.686;2023-05-10T03:46:38;1.77;;;1.67;;
25479;SDS011;13393;49.378;8.686;2023-05-10T03:49:04;3.08;;;1.83;;
25479;SDS011;13393;49.378;8.686;2023-05-10T03:51:30;6.78;;;1.83;;
25479;SDS011;13393;49.378;8.686;2023-05-10T03:53:57;1.90;;;1.67;;
25479;SDS011;13393;49.378;8.686;2023-05-10T03:56:23;5.22;;;2.00;;
25479;SDS011;13393;49.378;8.686;2023-05-10T03:58:50;1.88;;;1.77;;
25479;SDS011;13393;49.378;8.686;2023-05-10T04:01:16;10.68;;;2.03;;
25479;SDS011;13393;49.378;8.686;2023-05-10T04:03:44;2.38;;;1.77;;
25479;SDS011;13393;49.378;8.686;2023-05-10T04:06:10;3.25;;;2.35;;
25479;SDS011;13393;49.378;8.686;2023-05-10T04:08:37;4.72;;;2.20;;
25479;SDS011;13393;49.378;8.686;2023-05-10T04:11:06;3.13;;;2.42;;
25479;SDS011;13393;49.378;8.686;2023-05-10T04:13:33;4.55;;;2.38;;
25479;SDS011;13393;49.378;8.686;2023-05-10T04:16:00;2.63;;;2.42;;
25479;SDS011;13393;49.378;8.686;2023-05-10T04:18:26;3.08;;;2.15;;
25479;SDS011;13393;49.378;8.686;2023-05-10T04:20:54;4.10;;;2.50;;
25479;SDS011;13393;49.378;8.686;2023-05-10T04:23:20;4.10;;;2.33;;
25479;SDS011;13393;49.378;8.686;2023-05-10T04:25:46;2.78;;;2.58;;
25479;SDS011;13393;49.378;8.686;2023-05-10T04:28:13;6.72;;;2.30;;
25479;SDS011;13393;49.378;8.686;2023-05-10T04:30:39;4.10;;;2.40;;
25479;SDS011;13393;49.378;8.686;2023-05-10T04:33:06;6.20;;;2.80;;
25479;SDS011;13393;49.378;8.686;2023-05-10T04:35:32;2.92;;;2.55;;
25479;SDS011;13393;49.378;8.686;2023-05-10T04:38:00;3.22;;;3.00;;
25479;SDS011;13393;49.378;8.686;2023-05-10T04:40:26;4.35;;;2.72;;
25479;SDS011;13393;49.378;8.686;2023-05-10T04:42:53;7.35;;;3.38;;
25479;SDS011;13393;49.378;8.686;2023-05-10T04:45:19;3.17;;;2.78;;
25479;SDS011;13393;49.378;8.686;2023-05-10T04:47:46;2.55;;;2.35;;
25479;SDS011;13393;49.378;8.686;2023-05-10T04:50:12;2.92;;;2.45;;
25479;SDS011;13393;49.378;8.686;2023-05-10T04:52:38;3.72;;;2.25;;
25479;SDS011;13393;49.378;8.686;2023-05-10T04:55:06;3.55;;;2.60;;
25479;SDS011;13393;49.378;8.686;2023-05-10T04:57:34;4.53;;;2.20;;
25479;SDS011;13393;49.378;8.686;2023-05-10T05:00:01;6.88;;;2.60;;
25479;SDS011;13393;49.378;8.686;2023-05-10T05:02:28;2.88;;;2.67;;
25479;SDS011;13393;49.378;8.686;2023-05-10T05:04:55;2.60;;;2.40;;
25479;SDS011;13393;49.378;8.686;2023-05-10T05:07:22;2.67;;;2.47;;
25479;SDS011;13393;49.378;8.686;2023-05-10T05:09:49;3.90;;;2.13;;
25479;SDS011;13393;49.378;8.686;2023-05-10T05:12:16;4.30;;;2.53;;
25479;SDS011;13393;49.378;8.686;2023-05-10T05:14:43;3.03;;;2.60;;
25479;SDS011;13393;49.378;8.686;2023-05-10T05:17:09;3.03;;;2.83;;
25479;SDS011;13393;49.378;8.686;2023-05-10T05:19:35;3.45;;;2.75;;
25479;SDS011;13393;49.378;8.686;2023-05-10T05:22:02;5.15;;;2.90;;
25479;SDS011;13393;49.378;8.686;2023-05-10T05:24:28;5.07;;;2.80;;
25479;SDS011;13393;49.378;8.686;2023-05-10T05:26:55;2.90;;;2.70;;
25479;SDS011;13393;49.378;8.686;2023-05-10T05:29:22;7.40;;;2.90;;
25479;SDS011;13393;49.378;8.686;2023-05-10T05:31:49;3.63;;;3.15;;
25479;SDS011;13393;49.378;8.686;2023-05-10T05:34:15;4.70;;;2.97;;
25479;SDS011;13393;49.378;8.686;2023-05-10T05:36:41;6.18;;;3.20;;
25479;SDS011;13393;49.378;8.686;2023-05-10T05:39:08;3.33;;;3.03;;
25479;SDS011;13393;49.378;8.686;2023-05-10T05:41:34;3.67;;;3.38;;
25479;SDS011;13393;49.378;8.686;2023-05-10T05:44:00;3.28;;;2.97;;
25479;SDS011;13393;49.378;8.686;2023-05-10T05:46:28;3.53;;;3.22;;
25479;SDS011;13393;49.378;8.686;2023-05-10T05:48:54;4.90;;;3.20;;
25479;SDS011;13393;49.378;8.686;2023-05-10T05:51:21;2.92;;;2.72;;
25479;SDS011;13393;49.378;8.686;2023-05-10T05:53:47;3.30;;;3.00;;
25479;SDS011;13393;49.378;8.686;2023-05-10T05:56:13;3.83;;;3.45;;
25479;SDS011;13393;49.378;8.686;2023-05-10T05:58:40;5.18;;;3.40;;
25479;SDS011;13393;49.378;8.686;2023-05-10T06:01:06;5.63;;;3.45;;
25479;SDS011;13393;49.378;8.686;2023-05-10T06:03:35;5.13;;;3.25;;
25479;SDS011;13393;49.378;8.686;2023-05-10T06:06:01;4.07;;;3.30;;
25479;SDS011;13393;49.378;8.686;2023-05-10T06:08:27;6.05;;;3.55;;
25479;SDS011;13393;49.378;8.686;2023-05-10T06:10:54;7.75;;;3.55;;
25479;SDS011;13393;49.378;8.686;2023-05-10T06:13:20;6.63;;;4.00;;
25479;SDS011;13393;49.378;8.686;2023-05-10T06:15:46;4.43;;;3.45;;
25479;SDS011;13393;49.378;8.686;2023-05-10T06:18:13;5.55;;;3.75;;
25479;SDS011;13393;49.378;8.686;2023-05-10T06:20:42;11.48;;;4.10;;
25479;SDS011;13393;49.378;8.686;2023-05-10T06:23:08;5.63;;;3.80;;
25479;SDS011;13393;49.378;8.686;2023-05-10T06:25:35;4.18;;;3.58;;
25479;SDS011;13393;49.378;8.686;2023-05-10T06:28:01;4.60;;;3.85;;
25479;SDS011;13393;49.378;8.686;2023-05-10T06:30:28;6.10;;;3.72;;
25479;SDS011;13393;49.378;8.686;2023-05-10T06:32:54;5.65;;;3.78;;
25479;SDS011;13393;49.378;8.686;2023-05-10T06:35:21;4.63;;;3.80;;
25479;SDS011;13393;49.378;8.686;2023-05-10T06:37:49;3.60;;;3.30;;
25479;SDS011;13393;49.378;8.686;2023-05-10T06:40:15;5.47;;;3.60;;
25479;SDS011;13393;49.378;8.686;2023-05-10T06:42:42;4.20;;;3.40;;
25479;SDS011;13393;49.378;8.686;2023-05-10T06:45:10;4.00;;;3.60;;
25479;SDS011;13393;49.378;8.686;2023-05-10T06:47:36;4.57;;;3.90;;
25479;SDS011;13393;49.378;8.686;2023-05-10T06:50:07;5.40;;;3.63;;
25479;SDS011;13393;49.378;8.686;2023-05-10T06:52:33;7.72;;;3.72;;
25479;SDS011;13393;49.378;8.686;2023-05-10T06:55:01;5.18;;;3.45;;
25479;SDS011;13393;49.378;8.686;2023-05-10T06:57:28;4.05;;;3.05;;
25479;SDS011;13393;49.378;8.686;2023-05-10T06:59:54;4.32;;;3.28;;
25479;SDS011;13393;49.378;8.686;2023-05-10T07:02:21;5.22;;;3.05;;
25479;SDS011;13393;49.378;8.686;2023-05-10T07:04:48;4.63;;;3.03;;
25479;SDS011;13393;49.378;8.686;2023-05-10T07:07:15;3.45;;;3.15;;
25479;SDS011;13393;49.378;8.686;2023-05-10T07:09:41;6.53;;;3.15;;
25479;SDS011;13393;49.378;8.686;2023-05-10T07:12:09;4.38;;;3.10;;
25479;SDS011;13393;49.378;8.686;2023-05-10T07:14:35;2.97;;;2.72;;
25479;SDS011;13393;49.378;8.686;2023-05-10T07:17:02;2.92;;;2.72;;
25479;SDS011;13393;49.378;8.686;2023-05-10T07:19:28;3.30;;;3.00;;
25479;SDS011;13393;49.378;8.686;2023-05-10T07:21:57;5.40;;;3.20;;
25479;SDS011;13393;49.378;8.686;2023-05-10T07:24:23;3.05;;;2.85;;
25479;SDS011;13393;49.378;8.686;2023-05-10T07:26:50;3.28;;;3.05;;
25479;SDS011;13393;49.378;8.686;2023-05-10T07:29:18;3.45;;;2.80;;
25479;SDS011;13393;49.378;8.686;2023-05-10T07:31:44;6.28;;;3.05;;
25479;SDS011;13393;49.378;8.686;2023-05-10T07:34:10;2.85;;;2.60;;
25479;SDS011;13393;49.378;8.686;2023-05-10T07:36:37;3.92;;;2.55;;
25479;SDS011;13393;49.378;8.686;2023-05-10T07:39:03;6.93;;;3.10;;
25479;SDS011;13393;49.378;8.686;2023-05-10T07:41:30;2.90;;;2.30;;
25479;SDS011;13393;49.378;8.686;2023-05-10T07:43:57;4.65;;;2.60;;
25479;SDS011;13393;49.378;8.686;2023-05-10T07:46:25;4.03;;;3.03;;
25479;SDS011;13393;49.378;8.686;2023-05-10T07:48:51;4.13;;;2.70;;
25479;SDS011;13393;49.378;8.686;2023-05-10T07:51:17;2.75;;;2.50;;
25479;SDS011;13393;49.378;8.686;2023-05-10T07:53:44;2.60;;;2.35;;
25479;SDS011;13393;49.378;8.686;2023-05-10T07:56:20;2.45;;;2.25;;
25479;SDS011;13393;49.378;8.686;2023-05-10T07:58:47;3.63;;;2.30;;
25479;SDS011;13393;49.378;8.686;2023-05-10T08:01:13;2.90;;;2.30;;
25479;SDS011;13393;49.378;8.686;2023-05-10T08:03:41;2.70;;;2.00;;
25479;SDS011;13393;49.378;8.686;2023-05-10T08:06:08;4.03;;;2.20;;
25479;SDS011;13393;49.378;8.686;2023-05-10T08:08:34;1.83;;;1.58;;
25479;SDS011;13393;49.378;8.686;2023-05-10T08:11:00;3.30;;;1.98;;
25479;SDS011;13393;49.378;8.686;2023-05-10T08:13:27;3.22;;;2.40;;
25479;SDS011;13393;49.378;8.686;2023-05-10T08:15:53;3.55;;;2.08;;
25479;SDS011;13393;49.378;8.686;2023-05-10T08:18:19;2.80;;;1.80;;
25479;SDS011;13393;49.378;8.686;2023-05-10T08:20:47;2.45;;;1.55;;
25479;SDS011;13393;49.378;8.686;2023-05-10T08:23:13;1.55;;;1.45;;
25479;SDS011;13393;49.378;8.686;2023-05-10T08:25:40;1.65;;;1.55;;
25479;SDS011;13393;49.378;8.686;2023-05-10T08:28:07;3.30;;;1.50;;
25479;SDS011;13393;49.378;8.686;2023-05-10T08:30:33;1.60;;;1.30;;
25479;SDS011;13393;49.378;8.686;2023-05-10T08:32:59;4.47;;;1.92;;
25479;SDS011;13393;49.378;8.686;2023-05-10T08:35:26;4.55;;;1.50;;
25479;SDS011;13393;49.378;8.686;2023-05-10T08:37:53;3.33;;;1.40;;
25479;SDS011;13393;49.378;8.686;2023-05-10T08:40:20;1.42;;;1.33;;
25479;SDS011;13393;49.378;8.686;2023-05-10T08:42:48;2.47;;;1.75;;
25479;SDS011;13393;49.378;8.686;2023-05-10T08:45:17;1.75;;;1.40;;
25479;SDS011;13393;49.378;8.686;2023-05-10T08:47:44;2.85;;;1.50;;
25479;SDS011;13393;49.378;8.686;2023-05-10T08:50:11;1.42;;;1.20;;
25479;SDS011;13393;49.378;8.686;2023-05-10T08:52:38;1.50;;;1.40;;
25479;SDS011;13393;49.378;8.686;2023-05-10T08:55:06;3.42;;;1.55;;
25479;SDS011;13393;49.378;8.686;2023-05-10T08:57:33;2.38;;;1.58;;
25479;SDS011;13393;49.378;8.686;2023-05-10T08:59:59;1.63;;;1.40;;
25479;SDS011;13393;49.378;8.686;2023-05-10T09:02:27;1.52;;;1.30;;
25479;SDS011;13393;49.378;8.686;2023-05-10T09:04:53;3.25;;;1.60;;
25479;SDS011;13393;49.378;8.686;2023-05-10T09:07:20;2.17;;;1.42;;
25479;SDS011;13393;49.378;8.686;2023-05-10T09:09:46;3.25;;;1.27;;
25479;SDS011;13393;49.378;8.686;2023-05-10T09:12:14;2.33;;;1.17;;
25479;SDS011;13393;49.378;8.686;2023-05-10T09:14:41;2.45;;;1.20;;
25479;SDS011;13393;49.378;8.686;2023-05-10T09:17:08;1.30;;;1.20;;
25479;SDS011;13393;49.378;8.686;2023-05-10T09:19:35;2.38;;;1.05;;
25479;SDS011;13393;49.378;8.686;2023-05-10T09:22:02;2.30;;;1.10;;
25479;SDS011;13393;49.378;8.686;2023-05-10T09:24:29;1.00;;;1.00;;
25479;SDS011;13393;49.378;8.686;2023-05-10T09:26:56;1.52;;;1.40;;
25479;SDS011;13393;49.378;8.686;2023-05-10T09:29:24;0.80;;;0.80;;
25479;SDS011;13393;49.378;8.686;2023-05-10T09:31:50;2.70;;;1.30;;
25479;SDS011;13393;49.378;8.686;2023-05-10T09:34:20;2.03;;;1.10;;
25479;SDS011;13393;49.378;8.686;2023-05-10T09:36:53;2.95;;;1.00;;
25479;SDS011;13393;49.378;8.686;2023-05-10T09:39:20;1.73;;;1.17;;
25479;SDS011;13393;49.378;8.686;2023-05-10T09:41:46;1.83;;;1.10;;
25479;SDS011;13393;49.378;8.686;2023-05-10T09:44:15;1.55;;;1.30;;
25479;SDS011;13393;49.378;8.686;2023-05-10T09:46:44;3.22;;;1.20;;
25479;SDS011;13393;49.378;8.686;2023-05-10T09:49:14;3.95;;;1.30;;
25479;SDS011;13393;49.378;8.686;2023-05-10T09:51:40;3.15;;;1.33;;
25479;SDS011;13393;49.378;8.686;2023-05-10T09:54:10;1.80;;;1.15;;
25479;SDS011;13393;49.378;8.686;2023-05-10T09:56:37;2.10;;;1.40;;
25479;SDS011;13393;49.378;8.686;2023-05-10T09:59:05;2.60;;;1.50;;
25479;SDS011;13393;49.378;8.686;2023-05-10T10:01:31;2.38;;;0.90;;
25479;SDS011;13393;49.378;8.686;2023-05-10T10:04:00;0.90;;;0.90;;
25479;SDS011;13393;49.378;8.686;2023-05-10T10:06:28;3.42;;;0.93;;
25479;SDS011;13393;49.378;8.686;2023-05-10T10:08:55;1.20;;;0.70;;
25479;SDS011;13393;49.378;8.686;2023-05-10T10:11:22;1.60;;;1.00;;
25479;SDS011;13393;49.378;8.686;2023-05-10T10:13:49;1.90;;;1.10;;
25479;SDS011;13393;49.378;8.686;2023-05-10T10:16:16;1.33;;;1.00;;
25479;SDS011;13393;49.378;8.686;2023-05-10T10:18:42;1.85;;;0.95;;
25479;SDS011;13393;49.378;8.686;2023-05-10T10:21:10;0.98;;;0.80;;
25479;SDS011;13393;49.378;8.686;2023-05-10T10:23:36;2.03;;;0.80;;
25479;SDS011;13393;49.378;8.686;2023-05-10T10:26:03;2.25;;;1.23;;
25479;SDS011;13393;49.378;8.686;2023-05-10T10:28:32;1.58;;;0.80;;
25479;SDS011;13393;49.378;8.686;2023-05-10T10:31:04;0.55;;;0.52;;
25479;SDS011;13393;49.378;8.686;2023-05-10T10:33:47;0.60;;;0.60;;
25479;SDS011;13393;49.378;8.686;2023-05-10T10:36:18;3.15;;;0.90;;
25479;SDS011;13393;49.378;8.686;2023-05-10T10:38:57;0.88;;;0.88;;
25479;SDS011;13393;49.378;8.686;2023-05-10T10:41:32;0.70;;;0.63;;
25479;SDS011;13393;49.378;8.686;2023-05-10T10:49:30;1.30;;;0.90;;
25479;SDS011;13393;49.378;8.686;2023-05-10T10:52:20;1.85;;;0.80;;
25479;SDS011;13393;49.378;8.686;2023-05-10T10:54:49;1.45;;;1.00;;
25479;SDS011;13393;49.378;8.686;2023-05-10T10:57:17;0.80;;;0.65;;
25479;SDS011;13393;49.378;8.686;2023-05-10T10:59:44;1.20;;;0.75;;
25479;SDS011;13393;49.378;8.686;2023-05-10T11:02:10;0.68;;;0.60;;
25479;SDS011;13393;49.378;8.686;2023-05-10T11:04:56;1.52;;;0.82;;
25479;SDS011;13393;49.378;8.686;2023-05-10T11:07:24;1.05;;;0.55;;
25479;SDS011;13393;49.378;8.686;2023-05-10T11:09:50;0.95;;;0.57;;
25479;SDS011;13393;49.378;8.686;2023-05-10T11:12:17;1.45;;;0.77;;
25479;SDS011;13393;49.378;8.686;2023-05-10T11:14:48;1.75;;;0.80;;
25479;SDS011;13393;49.378;8.686;2023-05-10T11:17:24;1.30;;;1.10;;
25479;SDS011;13393;49.378;8.686;2023-05-10T11:20:08;1.50;;;0.70;;
25479;SDS011;13393;49.378;8.686;2023-05-10T11:22:50;0.70;;;0.70;;
25479;SDS011;13393;49.378;8.686;2023-05-10T11:25:16;1.45;;;0.90;;
25479;SDS011;13393;49.378;8.686;2023-05-10T11:27:43;2.35;;;0.90;;
25479;SDS011;13393;49.378;8.686;2023-05-10T11:30:10;1.73;;;0.90;;
25479;SDS011;13393;49.378;8.686;2023-05-10T11:32:36;1.23;;;0.80;;
25479;SDS011;13393;49.378;8.686;2023-05-10T11:35:06;2.38;;;0.80;;
25479;SDS011;13393;49.378;8.686;2023-05-10T11:37:32;3.17;;;1.10;;
25479;SDS011;13393;49.378;8.686;2023-05-10T11:40:00;1.88;;;1.10;;
25479;SDS011;13393;49.378;8.686;2023-05-10T11:42:28;4.13;;;1.60;;
25479;SDS011;13393;49.378;8.686;2023-05-10T11:44:54;0.95;;;0.80;;
25479;SDS011;13393;49.378;8.686;2023-05-10T11:47:20;1.40;;;0.90;;
25479;SDS011;13393;49.378;8.686;2023-05-10T11:49:47;4.20;;;0.80;;
25479;SDS011;13393;49.378;8.686;2023-05-10T11:52:14;1.50;;;0.60;;
25479;SDS011;13393;49.378;8.686;2023-05-10T11:54:44;0.70;;;0.52;;
25479;SDS011;13393;49.378;8.686;2023-05-10T11:57:12;4.03;;;1.08;;
25479;SDS011;13393;49.378;8.686;2023-05-10T11:59:38;1.48;;;0.70;;
25479;SDS011;13393;49.378;8.686;2023-05-10T12:02:05;1.67;;;0.95;;
25479;SDS011;13393;49.378;8.686;2023-05-10T12:04:31;0.80;;;0.68;;
25479;SDS011;13393;49.378;8.686;2023-05-10T12:06:58;1.15;;;0.68;;
25479;SDS011;13393;49.378;8.686;2023-05-10T12:09:24;2.70;;;0.90;;
25479;SDS011;13393;49.378;8.686;2023-05-10T12:11:54;0.80;;;0.60;;
25479;SDS011;13393;49.378;8.686;2023-05-10T12:14:22;1.83;;;0.80;;
25479;SDS011;13393;49.378;8.686;2023-05-10T12:16:49;5.95;;;1.30;;
25479;SDS011;13393;49.378;8.686;2023-05-10T12:19:18;2.45;;;1.00;;
25479;SDS011;13393;49.378;8.686;2023-05-10T12:21:44;2.75;;;1.15;;
25479;SDS011;13393;49.378;8.686;2023-05-10T12:24:11;6.45;;;1.48;;
25479;SDS011;13393;49.378;8.686;2023-05-10T12:26:37;2.90;;;1.10;;
25479;SDS011;13393;49.378;8.686;2023-05-10T12:29:13;2.70;;;0.90;;
25479;SDS011;13393;49.378;8.686;2023-05-10T12:31:54;2.55;;;1.05;;
25479;SDS011;13393;49.378;8.686;2023-05-10T12:34:24;2.45;;;1.05;;
25479;SDS011;13393;49.378;8.686;2023-05-10T12:36:51;3.35;;;1.15;;
25479;SDS011;13393;49.378;8.686;2023-05-10T12:39:18;1.80;;;0.90;;
25479;SDS011;13393;49.378;8.686;2023-05-10T12:41:44;4.05;;;1.10;;
25479;SDS011;13393;49.378;8.686;2023-05-10T12:44:10;2.85;;;0.90;;
25479;SDS011;13393;49.378;8.686;2023-05-10T12:46:37;4.68;;;1.15;;
25479;SDS011;13393;49.378;8.686;2023-05-10T12:49:04;2.22;;;1.08;;
25479;SDS011;13393;49.378;8.686;2023-05-10T12:51:31;1.83;;;0.85;;
25479;SDS011;13393;49.378;8.686;2023-05-10T12:53:57;2.13;;;1.00;;
25479;SDS011;13393;49.378;8.686;2023-05-10T12:56:24;1.23;;;0.80;;
25479;SDS011;13393;49.378;8.686;2023-05-10T12:58:50;1.45;;;1.10;;
25479;SDS011;13393;49.378;8.686;2023-05-10T13:01:16;2.78;;;0.80;;
25479;SDS011;13393;49.378;8.686;2023-05-10T13:03:43;1.80;;;0.90;;
25479;SDS011;13393;49.378;8.686;2023-05-10T13:06:10;1.60;;;0.90;;
25479;SDS011;13393;49.378;8.686;2023-05-10T13:08:38;2.28;;;0.80;;
25479;SDS011;13393;49.378;8.686;2023-05-10T13:11:05;1.92;;;0.90;;
25479;SDS011;13393;49.378;8.686;2023-05-10T13:13:31;5.10;;;0.70;;
25479;SDS011;13393;49.378;8.686;2023-05-10T13:15:58;2.08;;;0.70;;
25479;SDS011;13393;49.378;8.686;2023-05-10T13:18:24;1.95;;;0.90;;
25479;SDS011;13393;49.378;8.686;2023-05-10T13:20:51;1.23;;;0.93;;
25479;SDS011;13393;49.378;8.686;2023-05-10T13:23:18;3.15;;;0.80;;
25479;SDS011;13393;49.378;8.686;2023-05-10T13:25:45;2.67;;;1.50;;
25479;SDS011;13393;49.378;8.686;2023-05-10T13:28:11;2.05;;;1.13;;
25479;SDS011;13393;49.378;8.686;2023-05-10T13:30:37;1.80;;;0.90;;
25479;SDS011;13393;49.378;8.686;2023-05-10T13:33:04;5.03;;;1.10;;
25479;SDS011;13393;49.378;8.686;2023-05-10T13:35:30;1.92;;;1.00;;
25479;SDS011;13393;49.378;8.686;2023-05-10T13:37:57;2.45;;;0.93;;
25479;SDS011;13393;49.378;8.686;2023-05-10T13:40:24;2.03;;;0.70;;
25479;SDS011;13393;49.378;8.686;2023-05-10T13:42:51;3.28;;;0.85;;
25479;SDS011;13393;49.378;8.686;2023-05-10T13:45:18;2.20;;;0.98;;
25479;SDS011;13393;49.378;8.686;2023-05-10T13:47:44;1.13;;;0.90;;
25479;SDS011;13393;49.378;8.686;2023-05-10T13:50:11;6.28;;;0.90;;
25479;SDS011;13393;49.378;8.686;2023-05-10T13:52:37;1.45;;;0.75;;
25479;SDS011;13393;49.378;8.686;2023-05-10T13:55:03;3.03;;;0.90;;
25479;SDS011;13393;49.378;8.686;2023-05-10T13:57:31;10.00;;;1.00;;
25479;SDS011;13393;49.378;8.686;2023-05-10T13:59:59;2.53;;;0.95;;
25479;SDS011;13393;49.378;8.686;2023-05-10T14:02:25;2.67;;;1.00;;
25479;SDS011;13393;49.378;8.686;2023-05-10T14:04:53;3.60;;;0.75;;
25479;SDS011;13393;49.378;8.686;2023-05-10T14:07:19;2.08;;;1.00;;
25479;SDS011;13393;49.378;8.686;2023-05-10T14:09:46;1.67;;;0.80;;
25479;SDS011;13393;49.378;8.686;2023-05-10T14:12:13;1.27;;;0.73;;
25479;SDS011;13393;49.378;8.686;2023-05-10T14:14:40;1.13;;;0.93;;
25479;SDS011;13393;49.378;8.686;2023-05-10T14:17:07;2.80;;;0.88;;
25479;SDS011;13393;49.378;8.686;2023-05-10T14:19:33;1.25;;;0.60;;
25479;SDS011;13393;49.378;8.686;2023-05-10T14:22:00;1.42;;;0.50;;
25479;SDS011;13393;49.378;8.686;2023-05-10T14:24:26;2.72;;;0.60;;
25479;SDS011;13393;49.378;8.686;2023-05-10T14:26:53;4.32;;;0.60;;
25479;SDS011;13393;49.378;8.686;2023-05-10T14:29:19;1.27;;;0.80;;
25479;SDS011;13393;49.378;8.686;2023-05-10T14:31:47;1.20;;;0.68;;
25479;SDS011;13393;49.378;8.686;2023-05-10T14:34:13;1.20;;;0.60;;
25479;SDS011;13393;49.378;8.686;2023-05-10T14:36:39;2.83;;;0.90;;
25479;SDS011;13393;49.378;8.686;2023-05-10T14:39:06;1.52;;;0.73;;
25479;SDS011;13393;49.378;8.686;2023-05-10T14:41:33;3.83;;;1.05;;
25479;SDS011;13393;49.378;8.686;2023-05-10T14:43:59;3.03;;;0.52;;
25479;SDS011;13393;49.378;8.686;2023-05-10T14:46:26;1.63;;;0.80;;
25479;SDS011;13393;49.378;8.686;2023-05-10T14:48:54;1.38;;;0.73;;
25479;SDS011;13393;49.378;8.686;2023-05-10T14:51:20;0.50;;;0.35;;
25479;SDS011;13393;49.378;8.686;2023-05-10T14:53:47;0.60;;;0.40;;
25479;SDS011;13393;49.378;8.686;2023-05-10T14:56:13;1.83;;;0.90;;